Time,TemperatureF,DewpointF,PressureIn,WindDirection,WindDirectionDegrees,WindSpeedMPH,WindSpeedGustMPH,Humidity,HourlyPrecipIn,Conditions,Clouds,dailyrainin,SoftwareType,DateUTC
2013-03-21 00:02:00,29.0,-99.9,30.05,NE,54,2.0,6.0,-999,-99.99,,,-99.99,,2013-03-21 08:02:00,
2013-03-21 00:13:00,-999.0,-99.9,30.05,NNE,30,4.0,6.0,-999,-99.99,,,-99.99,,2013-03-21 08:13:00,
2013-03-21 00:23:00,-999.0,-99.9,30.06,North,350,2.0,8.0,-999,-99.99,,,-99.99,,2013-03-21 08:23:00,
2013-03-21 00:33:00,29.0,-99.9,30.06,NNW,344,2.0,5.0,-999,-99.99,,,-99.99,,2013-03-21 08:33:00,
2013-03-21 00:43:00,-999.0,-99.9,30.07,SSE,165,5.0,6.0,-999,-99.99,,,-99.99,,2013-03-21 08:43:00,
2013-03-21 00:52:00,-999.0,-99.9,30.07,West,267,9.0,13.0,-999,-99.99,,,-99.99,,2013-03-21 08:52:00,
2013-03-21 01:02:00,-999.0,-99.9,30.07,WNW,283,7.0,17.0,-999,-99.99,,,-99.99,,2013-03-21 09:02:00,
2013-03-21 01:11:00,-999.0,-99.9,30.07,South,187,5.0,8.0,-999,-99.99,,,-99.99,,2013-03-21 09:11:00,
2013-03-21 01:22:00,-999.0,-99.9,30.07,South,189,6.0,9.0,-999,-99.99,,,-99.99,,2013-03-21 09:22:00,
2013-03-21 01:33:00,29.0,-99.9,30.07,SW,223,6.0,12.0,-999,-99.99,,,-99.99,,2013-03-21 09:33:00,
2013-03-21 01:43:00,-999.0,-99.9,30.08,WSW,257,7.0,17.0,-999,-99.99,,,-99.99,,2013-03-21 09:43:00,
2013-03-21 01:53:00,-999.0,-99.9,30.07,WSW,249,4.0,20.0,-999,-99.99,,,-99.99,,2013-03-21 09:53:00,
2013-03-21 02:03:00,29.0,-99.9,30.08,SSW,210,6.0,18.0,-999,-99.99,,,-99.99,,2013-03-21 10:03:00,
2013-03-21 02:12:00,-999.0,-99.9,30.09,WSW,249,9.0,14.0,-999,-99.99,,,-99.99,,2013-03-21 10:12:00,
2013-03-21 02:23:00,-999.0,-99.9,30.09,SSW,206,9.0,20.0,-999,-99.99,,,-99.99,,2013-03-21 10:23:00,
2013-03-21 02:34:00,29.0,-99.9,30.09,SW,216,11.0,23.0,-999,-99.99,,,-99.99,,2013-03-21 10:34:00,
2013-03-21 02:43:00,-999.0,-99.9,30.10,SSW,193,7.0,17.0,-999,-99.99,,,-99.99,,2013-03-21 10:43:00,
2013-03-21 02:53:00,-999.0,-99.9,30.10,SSE,161,9.0,22.0,-999,-99.99,,,-99.99,,2013-03-21 10:53:00,
2013-03-21 03:03:00,29.0,-99.9,30.10,NW,307,5.0,14.0,-999,-99.99,,,-99.99,,2013-03-21 11:03:00,
2013-03-21 03:13:00,-999.0,-99.9,30.10,WNW,296,4.0,11.0,-999,-99.99,,,-99.99,,2013-03-21 11:13:00,
2013-03-21 03:23:00,-999.0,-99.9,30.11,WSW,242,7.0,13.0,-999,-99.99,,,-99.99,,2013-03-21 11:23:00,
2013-03-21 03:33:00,-999.0,-99.9,30.11,WSW,244,7.0,23.0,-999,-99.99,,,-99.99,,2013-03-21 11:33:00,
2013-03-21 03:43:00,-999.0,-99.9,30.11,SW,225,14.0,25.0,-999,-99.99,,,-99.99,,2013-03-21 11:43:00,
2013-03-21 03:53:00,-999.0,-99.9,30.11,SW,227,11.0,20.0,-999,-99.99,,,-99.99,,2013-03-21 11:53:00,
2013-03-21 04:03:00,28.0,-99.9,30.11,SW,220,12.0,21.0,-999,-99.99,,,-99.99,,2013-03-21 12:03:00,
2013-03-21 04:13:00,-999.0,-99.9,30.11,WSW,244,11.0,20.0,-999,-99.99,,,-99.99,,2013-03-21 12:13:00,
2013-03-21 04:22:00,-999.0,-99.9,30.12,WSW,243,15.0,23.0,-999,-99.99,,,-99.99,,2013-03-21 12:22:00,
2013-03-21 04:33:00,29.0,-99.9,30.12,SW,236,11.0,20.0,-999,-99.99,,,-99.99,,2013-03-21 12:33:00,
2013-03-21 04:43:00,-999.0,-99.9,30.13,SSE,148,7.0,10.0,-999,-99.99,,,-99.99,,2013-03-21 12:43:00,
2013-03-21 04:53:00,-999.0,-99.9,30.13,SSW,197,6.0,9.0,-999,-99.99,,,-99.99,,2013-03-21 12:53:00,
2013-03-21 05:03:00,28.0,-99.9,30.13,SW,215,3.0,6.0,-999,-99.99,,,-99.99,,2013-03-21 13:03:00,
2013-03-21 05:13:00,-999.0,-99.9,30.14,West,265,6.0,8.0,-999,-99.99,,,-99.99,,2013-03-21 13:13:00,
2013-03-21 05:22:00,-999.0,-99.9,30.14,SSE,151,4.0,7.0,-999,-99.99,,,-99.99,,2013-03-21 13:22:00,
2013-03-21 05:33:00,27.0,-99.9,30.14,SSE,158,4.0,5.0,-999,-99.99,,,-99.99,,2013-03-21 13:33:00,
2013-03-21 05:43:00,-999.0,-99.9,30.14,SW,226,4.0,5.0,-999,-99.99,,,-99.99,,2013-03-21 13:43:00,
2013-03-21 05:53:00,-999.0,-99.9,30.13,WSW,245,3.0,4.0,-999,-99.99,,,-99.99,,2013-03-21 13:53:00,
2013-03-21 06:02:00,27.0,-99.9,30.13,SW,228,2.0,3.0,-999,-99.99,,,-99.99,,2013-03-21 14:02:00,
2013-03-21 06:12:00,-999.0,-99.9,30.14,South,179,4.0,5.0,-999,-99.99,,,-99.99,,2013-03-21 14:12:00,
2013-03-21 06:22:00,-999.0,-99.9,30.14,SSW,209,8.0,11.0,-999,-99.99,,,-99.99,,2013-03-21 14:22:00,
2013-03-21 06:32:00,27.0,-99.9,30.14,SW,222,9.0,11.0,-999,-99.99,,,-99.99,,2013-03-21 14:32:00,
2013-03-21 06:43:00,-999.0,-99.9,30.14,SW,222,5.0,8.0,-999,-99.99,,,-99.99,,2013-03-21 14:43:00,
2013-03-21 06:52:00,-999.0,-99.9,30.15,SW,227,7.0,8.0,-999,-99.99,,,-99.99,,2013-03-21 14:52:00,
2013-03-21 07:04:00,-999.0,-99.9,30.15,SW,229,9.0,10.0,-999,-99.99,,,-99.99,,2013-03-21 15:04:00,
2013-03-21 07:13:00,-999.0,-99.9,30.15,SSW,208,8.0,11.0,-999,-99.99,,,-99.99,,2013-03-21 15:13:00,
2013-03-21 07:22:00,-999.0,-99.9,30.15,SSW,211,4.0,7.0,-999,-99.99,,,-99.99,,2013-03-21 15:22:00,
2013-03-21 07:33:00,28.0,-99.9,30.15,SW,214,5.0,6.0,-999,-99.99,,,-99.99,,2013-03-21 15:33:00,
2013-03-21 07:43:00,-999.0,-99.9,30.15,WSW,239,7.0,7.0,-999,-99.99,,,-99.99,,2013-03-21 15:43:00,
2013-03-21 07:53:00,-999.0,-99.9,30.15,ESE,120,5.0,8.0,-999,-99.99,,,-99.99,,2013-03-21 15:53:00,
2013-03-21 08:03:00,26.0,-99.9,30.16,SE,131,4.0,9.0,-999,-99.99,,,-99.99,,2013-03-21 16:03:00,
2013-03-21 08:13:00,-999.0,-99.9,30.16,SSW,208,6.0,7.0,-999,-99.99,,,-99.99,,2013-03-21 16:13:00,
2013-03-21 08:23:00,-999.0,-99.9,30.16,South,191,2.0,5.0,-999,-99.99,,,-99.99,,2013-03-21 16:23:00,
2013-03-21 08:33:00,27.0,-99.9,30.17,South,180,3.0,4.0,-999,-99.99,,,-99.99,,2013-03-21 16:33:00,
2013-03-21 08:42:00,-999.0,-99.9,30.16,South,182,3.0,4.0,-999,-99.99,,,-99.99,,2013-03-21 16:42:00,
2013-03-21 08:53:00,-999.0,-99.9,30.16,SSE,163,1.0,3.0,-999,-99.99,,,-99.99,,2013-03-21 16:53:00,
2013-03-21 09:03:00,26.0,-99.9,30.16,ESE,109,1.0,2.0,-999,-99.99,,,-99.99,,2013-03-21 17:03:00,
2013-03-21 09:12:00,-999.0,-99.9,30.17,WSW,249,3.0,4.0,-999,-99.99,,,-99.99,,2013-03-21 17:12:00,
2013-03-21 09:23:00,-999.0,-99.9,30.17,WSW,243,3.0,4.0,-999,-99.99,,,-99.99,,2013-03-21 17:23:00,
2013-03-21 09:33:00,-999.0,-99.9,30.18,WNW,283,1.0,3.0,-999,-99.99,,,-99.99,,2013-03-21 17:33:00,
2013-03-21 09:43:00,-999.0,-99.9,30.18,ESE,109,2.0,5.0,-999,-99.99,,,-99.99,,2013-03-21 17:43:00,
2013-03-21 09:53:00,-999.0,-99.9,30.18,SE,146,3.0,4.0,-999,-99.99,,,-99.99,,2013-03-21 17:53:00,
2013-03-21 10:02:00,27.0,-99.9,30.18,SSE,155,2.0,4.0,-999,-99.99,,,-99.99,,2013-03-21 18:02:00,
2013-03-21 10:12:00,-999.0,-99.9,30.18,SW,223,4.0,5.0,-999,-99.99,,,-99.99,,2013-03-21 18:12:00,
2013-03-21 10:23:00,-999.0,-99.9,30.19,West,271,1.0,4.0,-999,-99.99,,,-99.99,,2013-03-21 18:23:00,
2013-03-21 10:32:00,29.0,-99.9,30.19,West,262,1.0,2.0,-999,-99.99,,,-99.99,,2013-03-21 18:32:00,
2013-03-21 10:43:00,-999.0,-99.9,30.19,WSW,247,3.0,4.0,-999,-99.99,,,-99.99,,2013-03-21 18:43:00,
2013-03-21 10:52:00,-999.0,-99.9,30.19,West,264,3.0,4.0,-999,-99.99,,,-99.99,,2013-03-21 18:52:00,
2013-03-21 11:02:00,30.0,-99.9,30.19,WSW,243,2.0,5.0,-999,-99.99,,,-99.99,,2013-03-21 19:02:00,
2013-03-21 11:32:00,31.0,-99.9,30.20,SSE,160,0.0,2.0,-999,-99.99,,,-99.99,,2013-03-21 19:32:00,
2013-03-21 11:43:00,-999.0,-99.9,30.20,SSW,205,2.0,4.0,-999,-99.99,,,-99.99,,2013-03-21 19:43:00,
2013-03-21 11:53:00,-999.0,-99.9,30.20,South,174,6.0,6.0,-999,-99.99,,,-99.99,,2013-03-21 19:53:00,
2013-03-21 12:02:00,-999.0,-99.9,30.21,South,175,5.0,6.0,-999,-99.99,,,-99.99,,2013-03-21 20:02:00,
2013-03-21 12:13:00,-999.0,-99.9,30.21,South,178,4.0,7.0,-999,-99.99,,,-99.99,,2013-03-21 20:13:00,
2013-03-21 12:23:00,-999.0,-99.9,30.21,South,183,4.0,5.0,-999,-99.99,,,-99.99,,2013-03-21 20:23:00,
2013-03-21 12:33:00,31.0,-99.9,30.20,South,187,3.0,5.0,-999,-99.99,,,-99.99,,2013-03-21 20:33:00,
2013-03-21 12:43:00,-999.0,-99.9,30.21,South,180,4.0,5.0,-999,-99.99,,,-99.99,,2013-03-21 20:43:00,
2013-03-21 12:53:00,-999.0,-99.9,30.21,South,177,4.0,6.0,-999,-99.99,,,-99.99,,2013-03-21 20:53:00,
2013-03-21 13:03:00,31.0,-99.9,30.21,South,181,4.0,5.0,-999,-99.99,,,-99.99,,2013-03-21 21:03:00,
2013-03-21 13:12:00,-999.0,-99.9,30.21,SSW,197,4.0,5.0,-999,-99.99,,,-99.99,,2013-03-21 21:12:00,
2013-03-21 13:23:00,-999.0,-99.9,30.20,SSW,205,4.0,6.0,-999,-99.99,,,-99.99,,2013-03-21 21:23:00,
2013-03-21 13:33:00,-999.0,-99.9,30.20,SW,216,3.0,5.0,-999,-99.99,,,-99.99,,2013-03-21 21:33:00,
2013-03-21 13:43:00,33.0,-99.9,30.20,SSW,199,3.0,4.0,-999,-99.99,,,-99.99,,2013-03-21 21:43:00,
2013-03-21 13:53:00,33.0,-99.9,30.20,SSW,197,4.0,6.0,-999,-99.99,,,-99.99,,2013-03-21 21:53:00,
2013-03-21 14:03:00,33.0,-99.9,30.20,SSW,213,5.0,6.0,-999,-99.99,,,-99.99,,2013-03-21 22:03:00,
2013-03-21 14:13:00,33.0,-99.9,30.20,SSW,202,5.0,6.0,-999,-99.99,,,-99.99,,2013-03-21 22:13:00,
2013-03-21 14:23:00,33.0,-99.9,30.20,South,182,3.0,4.0,-999,-99.99,,,-99.99,,2013-03-21 22:23:00,
2013-03-21 14:34:00,34.0,-99.9,30.20,SSW,197,5.0,7.0,-999,-99.99,,,-99.99,,2013-03-21 22:34:00,
2013-03-21 14:43:00,34.0,-99.9,30.20,South,185,5.0,8.0,-999,-99.99,,,-99.99,,2013-03-21 22:43:00,
2013-03-21 14:53:00,34.0,-99.9,30.20,South,178,6.0,11.0,-999,-99.99,,,-99.99,,2013-03-21 22:53:00,
2013-03-21 15:02:00,34.0,-99.9,30.20,South,177,7.0,10.0,-999,-99.99,,,-99.99,,2013-03-21 23:02:00,
2013-03-21 15:12:00,34.0,-99.9,30.19,South,171,7.0,11.0,-999,-99.99,,,-99.99,,2013-03-21 23:12:00,
2013-03-21 15:22:00,34.0,-99.9,30.19,South,179,6.0,10.0,-999,-99.99,,,-99.99,,2013-03-21 23:22:00,
2013-03-21 15:33:00,35.0,-99.9,30.19,South,184,4.0,8.0,-999,-99.99,,,-99.99,,2013-03-21 23:33:00,
2013-03-21 15:43:00,35.0,-99.9,30.18,South,171,5.0,6.0,-999,-99.99,,,-99.99,,2013-03-21 23:43:00,
2013-03-21 15:53:00,35.0,-99.9,30.18,South,174,4.0,6.0,-999,-99.99,,,-99.99,,2013-03-21 23:53:00,
2013-03-21 16:03:00,35.0,-99.9,30.18,South,176,6.0,8.0,-999,-99.99,,,-99.99,,2013-03-22 00:03:00,
2013-03-21 16:13:00,35.0,-99.9,30.17,SSE,165,8.0,10.0,-999,-99.99,,,-99.99,,2013-03-22 00:13:00,
2013-03-21 16:22:00,35.0,-99.9,30.17,SSE,158,6.0,7.0,-999,-99.99,,,-99.99,,2013-03-22 00:22:00,
2013-03-21 16:32:00,35.0,-99.9,30.16,South,171,7.0,10.0,-999,-99.99,,,-99.99,,2013-03-22 00:32:00,
2013-03-21 16:42:00,36.0,-99.9,30.16,South,178,6.0,9.0,-999,-99.99,,,-99.99,,2013-03-22 00:42:00,
2013-03-21 16:52:00,37.0,-99.9,30.15,SSW,199,3.0,5.0,-999,-99.99,,,-99.99,,2013-03-22 00:52:00,
2013-03-21 17:03:00,36.0,-99.9,30.16,South,176,4.0,5.0,-999,-99.99,,,-99.99,,2013-03-22 01:03:00,
2013-03-21 17:12:00,37.0,-99.9,30.15,SSW,198,5.0,6.0,-999,-99.99,,,-99.99,,2013-03-22 01:12:00,
2013-03-21 17:22:00,36.0,-99.9,30.15,SSE,160,4.0,5.0,-999,-99.99,,,-99.99,,2013-03-22 01:22:00,
2013-03-21 17:33:00,36.0,-99.9,30.15,South,171,5.0,7.0,-999,-99.99,,,-99.99,,2013-03-22 01:33:00,
2013-03-21 17:43:00,36.0,-99.9,30.15,South,172,8.0,9.0,-999,-99.99,,,-99.99,,2013-03-22 01:43:00,
2013-03-21 17:53:00,36.0,-99.9,30.14,SSE,166,7.0,9.0,-999,-99.99,,,-99.99,,2013-03-22 01:53:00,
2013-03-21 18:03:00,36.0,-99.9,30.14,SSE,159,8.0,9.0,-999,-99.99,,,-99.99,,2013-03-22 02:03:00,
2013-03-21 18:12:00,36.0,-99.9,30.14,South,174,9.0,11.0,-999,-99.99,,,-99.99,,2013-03-22 02:12:00,
2013-03-21 18:23:00,35.0,-99.9,30.14,SSE,165,6.0,7.0,-999,-99.99,,,-99.99,,2013-03-22 02:23:00,
2013-03-21 18:32:00,35.0,-99.9,30.14,SSE,164,5.0,6.0,-999,-99.99,,,-99.99,,2013-03-22 02:32:00,
2013-03-21 18:43:00,35.0,-99.9,30.13,SSE,164,10.0,12.0,-999,-99.99,,,-99.99,,2013-03-22 02:43:00,
2013-03-21 18:53:00,35.0,-99.9,30.13,South,184,6.0,10.0,-999,-99.99,,,-99.99,,2013-03-22 02:53:00,
2013-03-21 19:02:00,35.0,-99.9,30.13,SSE,159,8.0,10.0,-999,-99.99,,,-99.99,,2013-03-22 03:02:00,
2013-03-21 19:12:00,35.0,-99.9,30.12,SSE,165,9.0,15.0,-999,-99.99,,,-99.99,,2013-03-22 03:12:00,
2013-03-21 19:22:00,35.0,-99.9,30.12,South,173,10.0,12.0,-999,-99.99,,,-99.99,,2013-03-22 03:22:00,
2013-03-21 19:33:00,36.0,-99.9,30.11,South,186,7.0,10.0,-999,-99.99,,,-99.99,,2013-03-22 03:33:00,
2013-03-21 19:43:00,36.0,-99.9,30.11,South,173,9.0,11.0,-999,-99.99,,,-99.99,,2013-03-22 03:43:00,
2013-03-21 19:53:00,36.0,-99.9,30.11,South,173,8.0,11.0,-999,-99.99,,,-99.99,,2013-03-22 03:53:00,
2013-03-21 20:04:00,36.0,-99.9,30.11,SSE,164,8.0,10.0,-999,-99.99,,,-99.99,,2013-03-22 04:04:00,
2013-03-21 20:13:00,36.0,-99.9,30.11,SSE,166,7.0,11.0,-999,-99.99,,,-99.99,,2013-03-22 04:13:00,
2013-03-21 20:23:00,36.0,-99.9,30.11,SSE,164,8.0,9.0,-999,-99.99,,,-99.99,,2013-03-22 04:23:00,
2013-03-21 20:32:00,35.0,-99.9,30.11,SE,144,6.0,9.0,-999,-99.99,,,-99.99,,2013-03-22 04:32:00,
2013-03-21 20:43:00,35.0,-99.9,30.11,ESE,120,4.0,6.0,-999,-99.99,,,-99.99,,2013-03-22 04:43:00,
2013-03-21 20:53:00,36.0,-99.9,30.11,South,169,5.0,12.0,-999,-99.99,,,-99.99,,2013-03-22 04:53:00,
2013-03-21 21:02:00,35.0,-99.9,30.11,SSE,164,12.0,18.0,-999,-99.99,,,-99.99,,2013-03-22 05:02:00,
2013-03-21 21:12:00,35.0,-99.9,30.12,South,173,15.0,20.0,-999,-99.99,,,-99.99,,2013-03-22 05:12:00,
2013-03-21 21:22:00,35.0,-99.9,30.12,South,176,13.0,16.0,-999,-99.99,,,-99.99,,2013-03-22 05:22:00,
2013-03-21 21:32:00,35.0,-99.9,30.12,SSW,212,5.0,12.0,-999,-99.99,,,-99.99,,2013-03-22 05:32:00,
2013-03-21 21:42:00,35.0,-99.9,30.12,SSE,152,4.0,8.0,-999,-99.99,,,-99.99,,2013-03-22 05:42:00,
2013-03-21 21:52:00,35.0,-99.9,30.11,South,169,2.0,4.0,-999,-99.99,,,-99.99,,2013-03-22 05:52:00,
2013-03-21 22:02:00,35.0,-99.9,30.11,ESE,104,3.0,5.0,-999,-99.99,,,-99.99,,2013-03-22 06:02:00,
2013-03-21 22:13:00,35.0,-99.9,30.11,South,175,5.0,10.0,-999,-99.99,,,-99.99,,2013-03-22 06:13:00,
2013-03-21 22:22:00,35.0,-99.9,30.11,SE,144,11.0,15.0,-999,-99.99,,,-99.99,,2013-03-22 06:22:00,
2013-03-21 22:32:00,36.0,-99.9,30.11,SSE,162,11.0,15.0,-999,-99.99,,,-99.99,,2013-03-22 06:32:00,
2013-03-21 22:43:00,35.0,-99.9,30.10,SE,144,11.0,21.0,-999,-99.99,,,-99.99,,2013-03-22 06:43:00,
2013-03-21 22:52:00,35.0,-99.9,30.10,SE,141,15.0,20.0,-999,-99.99,,,-99.99,,2013-03-22 06:52:00,
2013-03-21 23:03:00,36.0,-99.9,30.11,SSE,147,15.0,22.0,-999,-99.99,,,-99.99,,2013-03-22 07:03:00,
2013-03-21 23:12:00,36.0,-99.9,30.10,SSE,154,13.0,19.0,-999,-99.99,,,-99.99,,2013-03-22 07:12:00,
2013-03-21 23:22:00,36.0,-99.9,30.10,South,177,11.0,20.0,-999,-99.99,,,-99.99,,2013-03-22 07:22:00,
2013-03-21 23:32:00,36.0,-99.9,30.11,SSE,161,10.0,13.0,-999,-99.99,,,-99.99,,2013-03-22 07:32:00,
2013-03-21 23:42:00,36.0,-99.9,30.11,South,175,9.0,13.0,-999,-99.99,,,-99.99,,2013-03-22 07:42:00,
2013-03-21 23:52:00,35.0,-99.9,30.11,SSE,162,10.0,12.0,-999,-99.99,,,-99.99,,2013-03-22 07:52:00,